createdAt,value
2022-08-12T00:00:31.362Z,17.91
2022-08-12T00:03:54.723Z,17.77
2022-08-12T00:07:18.308Z,17.67
2022-08-12T00:10:41.550Z,17.62
2022-08-12T00:14:04.899Z,17.58
2022-08-12T00:17:27.887Z,17.54
2022-08-12T00:20:51.110Z,17.50
2022-08-12T00:24:14.010Z,17.46
2022-08-12T00:27:43.807Z,17.43
2022-08-12T00:31:08.297Z,17.42
2022-08-12T00:34:35.044Z,17.37
2022-08-12T00:37:58.706Z,17.42
2022-08-12T00:44:44.248Z,17.50
2022-08-12T00:47:49.407Z,17.68
2022-08-12T00:50:55.687Z,17.73
2022-08-12T00:54:01.288Z,17.72
2022-08-12T00:57:06.635Z,17.80
2022-08-12T01:00:28.671Z,17.81
2022-08-12T01:03:56.702Z,17.95
2022-08-12T01:07:22.742Z,18.11
2022-08-12T01:10:45.956Z,18.18
2022-08-12T01:13:58.061Z,18.06
2022-08-12T01:17:04.449Z,18.17
2022-08-12T01:20:10.144Z,18.12
2022-08-12T01:23:15.836Z,18.22
2022-08-12T01:26:21.553Z,18.28
2022-08-12T01:29:28.641Z,18.21
2022-08-12T01:32:38.888Z,18.22
2022-08-12T01:35:46.539Z,18.11
2022-08-12T01:39:12.070Z,17.95
2022-08-12T01:42:20.703Z,17.78
2022-08-12T01:45:25.900Z,17.66
2022-08-12T01:48:32.443Z,17.55
2022-08-12T01:52:20.517Z,17.41
2022-08-12T01:55:07.179Z,17.32
2022-08-12T01:58:13.276Z,17.24
2022-08-12T02:01:19.335Z,17.16
2022-08-12T02:04:42.707Z,17.10
2022-08-12T02:08:06.163Z,17.05
2022-08-12T02:11:18.587Z,16.99
2022-08-12T02:14:24.911Z,16.93
2022-08-12T02:17:54.517Z,16.91
2022-08-12T02:20:57.190Z,16.92
2022-08-12T02:24:02.977Z,16.89
2022-08-12T02:27:09.092Z,16.98
2022-08-12T02:30:15.031Z,17.05
2022-08-12T02:33:20.565Z,17.05
2022-08-12T02:36:25.874Z,17.05
2022-08-12T02:39:34.071Z,17.04
2022-08-12T02:42:41.319Z,17.09
2022-08-12T02:45:48.156Z,17.08
2022-08-12T02:48:53.964Z,17.07
2022-08-12T02:51:59.293Z,17.02
2022-08-12T02:55:04.954Z,16.98
2022-08-12T02:58:12.449Z,17.06
2022-08-12T03:01:20.269Z,17.17
2022-08-12T03:04:27.441Z,17.28
2022-08-12T03:07:55.907Z,17.36
2022-08-12T03:10:58.416Z,17.40
2022-08-12T03:14:07.520Z,17.37
2022-08-12T03:17:14.375Z,17.37
2022-08-12T03:20:24.428Z,17.39
2022-08-12T03:23:32.681Z,17.39
2022-08-12T03:26:38.329Z,17.36
2022-08-12T03:29:50.266Z,17.41
2022-08-12T03:32:57.306Z,17.47
2022-08-12T03:36:03.070Z,17.53
2022-08-12T03:39:41.198Z,17.61
2022-08-12T03:42:52.294Z,17.66
2022-08-12T03:46:15.692Z,17.70
2022-08-12T03:49:40.575Z,17.82
2022-08-12T03:53:03.911Z,18.06
2022-08-12T03:56:27.162Z,18.14
2022-08-12T03:59:50.293Z,18.20
2022-08-12T04:03:01.953Z,18.19
2022-08-12T04:06:07.604Z,18.20
2022-08-12T04:09:16.239Z,18.17
2022-08-12T04:12:39.227Z,18.18
2022-08-12T04:15:45.593Z,18.13
2022-08-12T04:18:53.283Z,18.24
2022-08-12T04:22:01.839Z,18.33
2022-08-12T04:25:09.504Z,18.47
2022-08-12T04:28:17.586Z,18.59
2022-08-12T04:31:26.385Z,18.71
2022-08-12T04:37:58.953Z,19.21
2022-08-12T04:41:06.785Z,19.62
2022-08-12T04:44:12.662Z,20.12
2022-08-12T04:47:18.458Z,20.51
2022-08-12T04:50:35.202Z,20.82
2022-08-12T04:53:42.143Z,20.98
2022-08-12T04:57:03.655Z,21.15
2022-08-12T05:00:10.670Z,21.23
2022-08-12T05:03:15.948Z,21.32
2022-08-12T05:06:26.788Z,21.42
2022-08-12T05:09:59.334Z,21.34
2022-08-12T05:16:27.182Z,21.22
2022-08-12T05:19:37.280Z,21.12
2022-08-12T05:22:45.315Z,21.08
2022-08-12T05:25:51.009Z,21.12
2022-08-12T05:28:56.743Z,21.09
2022-08-12T05:32:03.123Z,21.02
2022-08-12T05:35:08.875Z,20.96
2022-08-12T05:38:40.205Z,21.03
2022-08-12T05:41:46.176Z,21.15
2022-08-12T05:44:52.132Z,21.36
2022-08-12T05:47:57.958Z,21.48
2022-08-12T05:51:03.417Z,21.53
2022-08-12T05:54:12.685Z,21.64
2022-08-12T05:57:18.897Z,21.71
2022-08-12T06:00:25.770Z,21.73
2022-08-12T06:03:31.502Z,21.91
2022-08-12T06:06:40.170Z,21.99
2022-08-12T06:09:46.025Z,22.04
2022-08-12T06:12:51.415Z,22.13
2022-08-12T06:15:57.172Z,22.18
2022-08-12T06:19:04.668Z,22.27
2022-08-12T06:22:12.687Z,22.39
2022-08-12T06:25:22.142Z,22.46
2022-08-12T06:28:30.738Z,22.56
2022-08-12T06:31:36.345Z,22.62
2022-08-12T06:35:25.390Z,22.78
2022-08-12T06:38:08.830Z,22.94
2022-08-12T06:41:31.847Z,23.18
2022-08-12T06:44:37.289Z,23.29
2022-08-12T06:47:43.367Z,23.40
2022-08-12T06:50:49.360Z,23.53
2022-08-12T06:53:56.025Z,23.49
2022-08-12T06:58:08.043Z,23.62
2022-08-12T07:00:32.588Z,23.82
2022-08-12T07:03:38.559Z,24.00
2022-08-12T07:06:44.938Z,24.07
2022-08-12T07:10:06.169Z,24.17
2022-08-12T07:13:13.573Z,24.30
2022-08-12T07:16:18.908Z,24.33
2022-08-12T07:19:25.393Z,24.30
2022-08-12T07:22:46.366Z,24.52
2022-08-12T07:25:56.452Z,24.53
2022-08-12T07:29:05.033Z,24.57
2022-08-12T07:32:10.654Z,24.65
2022-08-12T07:35:20.655Z,24.80
2022-08-12T07:38:29.008Z,24.85
2022-08-12T07:41:35.181Z,24.81
2022-08-12T07:44:40.549Z,24.82
2022-08-12T07:47:46.544Z,24.96
2022-08-12T07:50:53.006Z,25.11
2022-08-12T07:54:01.191Z,25.19
2022-08-12T07:57:12.207Z,25.24
2022-08-12T08:00:18.626Z,25.35
2022-08-12T08:03:24.769Z,25.47
2022-08-12T08:06:35.023Z,25.50
2022-08-12T08:09:40.674Z,25.71
2022-08-12T08:12:56.089Z,25.85
2022-08-12T08:16:03.785Z,25.84
2022-08-12T08:19:10.194Z,25.85
2022-08-12T08:22:16.686Z,25.76
2022-08-12T08:25:35.618Z,25.95
2022-08-12T08:28:42.404Z,26.14
2022-08-12T08:31:50.624Z,26.23
2022-08-12T08:34:56.379Z,26.33
2022-08-12T08:38:03.442Z,26.32
2022-08-12T08:42:16.941Z,26.37
2022-08-12T08:44:57.816Z,26.37
2022-08-12T08:48:04.492Z,26.36
2022-08-12T08:51:10.256Z,26.38
2022-08-12T08:54:16.217Z,26.35
2022-08-12T08:57:21.868Z,26.39
2022-08-12T09:00:27.687Z,26.41
2022-08-12T09:05:08.432Z,26.39
2022-08-12T09:07:16.565Z,26.50
2022-08-12T09:17:13.967Z,26.60
2022-08-12T09:20:29.575Z,26.66
2022-08-12T09:23:59.705Z,26.74
2022-08-12T09:27:02.844Z,26.70
2022-08-12T09:30:16.251Z,26.82
2022-08-12T09:34:29.235Z,26.87
2022-08-12T09:37:00.933Z,26.96
2022-08-12T09:40:58.009Z,27.07
2022-08-12T09:47:29.394Z,27.13
2022-08-12T09:50:35.301Z,27.23
2022-08-12T09:53:40.978Z,27.28
2022-08-12T09:56:58.852Z,27.24
2022-08-12T10:00:13.228Z,27.16
2022-08-12T10:03:32.374Z,27.26
2022-08-12T10:06:54.834Z,27.33
2022-08-12T10:10:03.142Z,27.42
2022-08-12T10:13:34.728Z,27.56
2022-08-12T10:16:45.713Z,27.77
2022-08-12T10:19:52.774Z,27.81
2022-08-12T10:22:59.264Z,27.78
2022-08-12T10:26:38.115Z,27.90
2022-08-12T10:30:37.237Z,27.91
2022-08-12T10:33:18.685Z,27.84
2022-08-12T10:36:36.400Z,27.86
2022-08-12T10:40:02.197Z,27.91
2022-08-12T10:43:29.301Z,27.93
2022-08-12T10:46:55.454Z,28.03
2022-08-12T10:50:32.617Z,28.10
2022-08-12T10:53:44.821Z,28.18
2022-08-12T10:56:57.718Z,28.30
2022-08-12T11:00:31.498Z,28.30
2022-08-12T11:04:23.367Z,28.29
2022-08-12T11:07:05.238Z,28.37
2022-08-12T11:10:20.708Z,28.37
2022-08-12T11:13:46.261Z,28.45
2022-08-12T11:17:34.949Z,28.53
2022-08-12T11:20:29.000Z,28.72
2022-08-12T11:23:38.234Z,28.89
2022-08-12T11:26:46.213Z,29.05
2022-08-12T11:30:01.440Z,29.07
2022-08-12T11:33:24.432Z,29.13
2022-08-12T11:36:39.503Z,29.18
2022-08-12T11:43:18.812Z,29.13
2022-08-12T11:46:25.961Z,29.15
2022-08-12T11:49:32.767Z,29.17
2022-08-12T11:52:55.493Z,29.22
2022-08-12T11:56:02.275Z,29.32
2022-08-12T12:02:36.543Z,29.42
2022-08-12T12:05:45.786Z,29.54
2022-08-12T12:08:53.975Z,29.45
2022-08-12T12:12:01.014Z,29.45
2022-08-12T12:15:07.098Z,29.57
2022-08-12T12:18:15.804Z,29.71
2022-08-12T12:21:48.681Z,29.79
2022-08-12T12:24:54.481Z,29.69
2022-08-12T12:28:05.840Z,29.69
2022-08-12T12:31:15.041Z,29.67
2022-08-12T12:35:18.228Z,29.69
2022-08-12T12:38:30.159Z,29.70
2022-08-12T12:42:43.350Z,29.72
2022-08-12T12:45:03.523Z,29.80
2022-08-12T12:48:25.408Z,29.87
2022-08-12T12:52:17.185Z,29.91
2022-08-12T12:54:58.718Z,29.93
2022-08-12T12:58:05.755Z,29.97
2022-08-12T13:01:26.946Z,30.03
2022-08-12T13:04:58.112Z,30.00
2022-08-12T13:08:04.221Z,30.09
2022-08-12T13:11:11.784Z,30.16
2022-08-12T13:14:31.073Z,30.23
2022-08-12T13:18:02.019Z,30.23
2022-08-12T13:21:05.718Z,30.22
2022-08-12T13:24:21.782Z,30.28
2022-08-12T13:27:35.252Z,30.32
2022-08-12T13:30:41.478Z,30.30
2022-08-12T13:34:32.655Z,30.27
2022-08-12T13:37:24.800Z,30.20
2022-08-12T13:40:32.034Z,30.30
2022-08-12T13:43:40.588Z,30.28
2022-08-12T13:46:58.165Z,30.32
2022-08-12T13:50:05.116Z,30.31
2022-08-12T13:53:26.228Z,30.32
2022-08-12T13:56:37.929Z,30.38
2022-08-12T13:59:48.368Z,30.43
2022-08-12T14:03:01.060Z,30.46
2022-08-12T14:06:06.615Z,30.45
2022-08-12T14:09:17.527Z,30.46
2022-08-12T14:12:24.292Z,30.41
2022-08-12T14:15:37.373Z,30.42
2022-08-12T14:18:45.572Z,30.44
2022-08-12T14:22:05.482Z,30.44
2022-08-12T14:25:11.401Z,30.44
2022-08-12T14:28:23.999Z,30.47
2022-08-12T14:31:32.533Z,30.43
2022-08-12T14:34:37.897Z,30.48
2022-08-12T14:38:01.174Z,30.48
2022-08-12T14:41:07.470Z,30.51
2022-08-12T14:44:58.013Z,30.52
2022-08-12T14:47:38.497Z,30.49
2022-08-12T14:51:09.409Z,30.46
2022-08-12T14:57:57.062Z,30.37
2022-08-12T15:01:21.541Z,30.45
2022-08-12T15:04:29.832Z,30.43
2022-08-12T15:07:49.321Z,30.36
2022-08-12T15:10:56.754Z,30.38
2022-08-12T15:14:02.413Z,30.35
2022-08-12T15:17:11.820Z,30.35
2022-08-12T15:20:38.245Z,30.31
2022-08-12T15:23:45.716Z,30.27
2022-08-12T15:27:00.730Z,30.25
2022-08-12T15:30:06.909Z,30.28
2022-08-12T15:33:18.748Z,30.27
2022-08-12T15:36:54.886Z,30.48
2022-08-12T15:39:55.270Z,30.97
2022-08-12T15:43:08.303Z,31.70
2022-08-12T15:46:16.263Z,32.59
2022-08-12T15:49:21.760Z,33.47
2022-08-12T15:52:30.388Z,34.25
2022-08-12T15:55:36.027Z,34.89
2022-08-12T15:58:41.588Z,35.28
2022-08-12T16:01:48.398Z,35.74
2022-08-12T16:04:55.118Z,36.02
2022-08-12T16:08:01.029Z,36.51
2022-08-12T16:11:07.446Z,36.60
2022-08-12T16:14:21.061Z,36.66
2022-08-12T16:18:19.649Z,36.73
2022-08-12T16:20:59.150Z,36.62
2022-08-12T16:24:07.513Z,36.76
2022-08-12T16:27:14.145Z,36.79
2022-08-12T16:30:20.316Z,37.07
2022-08-12T16:33:59.487Z,37.00
2022-08-12T16:37:02.285Z,36.98
2022-08-12T16:40:09.244Z,37.03
2022-08-12T16:43:24.839Z,36.91
2022-08-12T16:46:31.912Z,36.79
2022-08-12T16:49:43.739Z,36.79
2022-08-12T16:52:49.761Z,37.01
2022-08-12T16:55:55.874Z,36.95
2022-08-12T16:59:01.524Z,36.92
2022-08-12T17:02:09.594Z,36.76
2022-08-12T17:05:17.557Z,36.64
2022-08-12T17:08:29.262Z,36.74
2022-08-12T17:11:55.562Z,36.65
2022-08-12T17:15:03.094Z,36.48
2022-08-12T17:18:43.943Z,36.39
2022-08-12T17:22:01.693Z,36.40
2022-08-12T17:25:14.566Z,36.48
2022-08-12T17:28:24.183Z,36.68
2022-08-12T17:31:59.859Z,36.84
2022-08-12T17:35:15.476Z,36.98
2022-08-12T17:38:22.928Z,36.86
2022-08-12T17:41:55.981Z,36.86
2022-08-12T17:45:01.554Z,36.65
2022-08-12T17:48:10.481Z,36.48
2022-08-12T17:51:20.404Z,36.31
2022-08-12T17:54:26.362Z,36.16
2022-08-12T17:57:31.659Z,36.06
2022-08-12T18:00:42.621Z,35.78
2022-08-12T18:04:04.940Z,35.59
2022-08-12T18:07:14.108Z,35.25
2022-08-12T18:10:43.158Z,34.92
2022-08-12T18:13:52.249Z,34.53
2022-08-12T18:17:00.354Z,33.81
2022-08-12T18:20:08.023Z,33.03
2022-08-12T18:23:24.406Z,32.26
2022-08-12T18:26:30.854Z,31.58
2022-08-12T18:29:41.909Z,31.03
2022-08-12T18:32:54.250Z,30.43
2022-08-12T18:36:13.344Z,29.94
2022-08-12T18:39:22.643Z,29.39
2022-08-12T18:42:29.546Z,28.92
2022-08-12T18:45:46.899Z,28.43
2022-08-12T18:49:16.736Z,27.92
2022-08-12T18:52:24.606Z,27.54
2022-08-12T18:55:37.481Z,27.29
2022-08-12T18:58:59.210Z,27.06
2022-08-12T19:02:26.255Z,26.85
2022-08-12T19:05:54.312Z,26.62
2022-08-12T19:08:57.744Z,26.43
2022-08-12T19:12:21.700Z,26.23
2022-08-12T19:15:27.232Z,26.06
2022-08-12T19:21:59.365Z,25.70
2022-08-12T19:26:00.919Z,25.50
2022-08-12T19:28:49.553Z,25.35
2022-08-12T19:31:59.330Z,25.23
2022-08-12T19:38:30.718Z,24.92
2022-08-12T19:41:56.069Z,24.76
2022-08-12T19:45:06.771Z,24.57
2022-08-12T19:48:18.120Z,24.39
2022-08-12T19:51:26.829Z,24.20
2022-08-12T19:54:43.830Z,24.01
2022-08-12T19:58:03.375Z,23.83
2022-08-12T20:01:12.645Z,23.67
2022-08-12T20:04:22.129Z,23.51
2022-08-12T20:07:34.571Z,23.37
2022-08-12T20:10:51.015Z,23.22
2022-08-12T20:17:23.589Z,22.95
2022-08-12T20:20:35.809Z,22.84
2022-08-12T20:23:59.562Z,22.69
2022-08-12T20:27:06.500Z,22.55
2022-08-12T20:30:52.352Z,22.44
2022-08-12T20:33:59.200Z,22.33
2022-08-12T20:40:29.921Z,22.10
2022-08-12T20:43:37.596Z,21.88
2022-08-12T20:46:47.813Z,21.74
2022-08-12T20:49:55.229Z,21.64
2022-08-12T20:53:07.765Z,21.55
2022-08-12T20:56:22.128Z,21.47
2022-08-12T20:59:38.370Z,21.42
2022-08-12T21:02:50.034Z,21.34
2022-08-12T21:06:17.069Z,21.29
2022-08-12T21:09:25.503Z,21.20
2022-08-12T21:12:34.058Z,21.10
2022-08-12T21:15:53.637Z,20.99
2022-08-12T21:19:01.039Z,20.91
2022-08-12T21:22:07.154Z,20.83
2022-08-12T21:25:35.835Z,20.78
2022-08-12T21:28:58.391Z,20.69
2022-08-12T21:32:36.876Z,20.63
2022-08-12T21:35:40.162Z,20.55
2022-08-12T21:38:47.053Z,20.44
2022-08-12T21:41:53.016Z,20.34
2022-08-12T21:45:45.730Z,20.24
2022-08-12T21:48:25.531Z,20.17
2022-08-12T21:51:50.316Z,20.05
2022-08-12T21:54:56.235Z,19.97
2022-08-12T21:58:02.936Z,19.89
2022-08-12T22:01:20.001Z,19.86
2022-08-12T22:04:49.848Z,19.79
2022-08-12T22:07:58.181Z,19.74
2022-08-12T22:11:04.257Z,19.66
2022-08-12T22:14:21.516Z,19.56
2022-08-12T22:17:50.569Z,19.44
2022-08-12T22:20:59.745Z,19.34
2022-08-12T22:24:09.683Z,19.31
2022-08-12T22:27:52.850Z,19.23
2022-08-12T22:31:11.536Z,19.15
2022-08-12T22:34:21.502Z,19.02
2022-08-12T22:37:35.131Z,18.95
2022-08-12T22:40:45.884Z,18.89
2022-08-12T22:44:11.941Z,18.84
2022-08-12T22:47:54.057Z,18.80
2022-08-12T22:51:09.575Z,18.74
2022-08-12T22:54:35.581Z,18.67
2022-08-12T22:57:53.231Z,18.62
2022-08-12T23:01:01.958Z,18.57
2022-08-12T23:04:16.463Z,18.52
2022-08-12T23:07:36.368Z,18.47
2022-08-12T23:10:59.286Z,18.37
2022-08-12T23:14:04.934Z,18.28
2022-08-12T23:17:35.204Z,18.25
2022-08-12T23:20:37.156Z,18.23
2022-08-12T23:24:09.668Z,18.21
2022-08-12T23:27:44.068Z,18.17
2022-08-12T23:30:50.925Z,18.13
2022-08-12T23:33:59.913Z,18.09
2022-08-12T23:37:07.108Z,18.04
2022-08-12T23:40:17.686Z,18.02
2022-08-12T23:43:25.541Z,17.96
2022-08-12T23:46:31.152Z,17.91
2022-08-12T23:49:57.542Z,17.90
2022-08-12T23:53:05.652Z,17.89
2022-08-12T23:56:12.328Z,17.89
2022-08-12T23:59:17.890Z,17.87
